Time;durP1;ratioP1;P1;durP2;ratioP2;P2;SDS_P1;SDS_P2;PMS_P1;PMS_P2;Temp;Humidity;BMP_temperature;BMP_pressure;BME280_temperature;BME280_humidity;BME280_pressure;Samples;Min_cycle;Max_cycle;Signal;HPM_P1;HPM_P2
2022/10/15 00:00:34;;;;;;;21.60;12.90;;;;;;;;;;103868;1297;22472;-86
2022/10/15 00:03:21;;;;;;;22.60;13.20;;;;;;;;;;103740;1303;22505;-85
2022/10/15 00:05:47;;;;;;;24.70;13.80;;;;;;;;;;103754;1296;22456;-82
2022/10/15 00:08:14;;;;;;;25.40;13.90;;;;;;;;;;103759;1303;25269;-89
2022/10/15 00:10:40;;;;;;;25.60;15.10;;;;;;;;;;103939;1302;21769;-83
2022/10/15 00:13:07;;;;;;;24.20;13.70;;;;;;;;;;103737;1303;24266;-84
2022/10/15 00:15:35;;;;;;;23.30;13.20;;;;;;;;;;103793;1290;22462;-85
2022/10/15 00:18:03;;;;;;;21.40;11.00;;;;;;;;;;103789;1303;22487;-84
2022/10/15 00:20:31;;;;;;;18.30;9.30;;;;;;;;;;103764;1303;23914;-87
2022/10/15 00:22:58;;;;;;;19.00;9.00;;;;;;;;;;103856;1302;26481;-84
2022/10/15 00:25:24;;;;;;;18.40;9.00;;;;;;;;;;103749;1297;24322;-85
2022/10/15 00:27:51;;;;;;;19.50;8.60;;;;;;;;;;103575;1303;22455;-84
2022/10/15 00:30:18;;;;;;;18.40;8.90;;;;;;;;;;103853;1296;23851;-83
2022/10/15 00:32:44;;;;;;;15.70;8.40;;;;;;;;;;103871;1303;24303;-82
2022/10/15 00:35:11;;;;;;;16.60;9.30;;;;;;;;;;103568;1301;24392;-85
2022/10/15 00:37:37;;;;;;;18.30;9.00;;;;;;;;;;103818;1304;23896;-85
2022/10/15 00:40:04;;;;;;;19.90;10.20;;;;;;;;;;103763;1304;23899;-88
2022/10/15 00:42:32;;;;;;;21.20;10.10;;;;;;;;;;103562;1305;22476;-87
2022/10/15 00:44:59;;;;;;;19.40;9.80;;;;;;;;;;103536;1293;23323;-83
2022/10/15 00:47:33;;;;;;;19.70;9.60;;;;;;;;;;103564;1305;22523;-83
2022/10/15 00:50:03;;;;;;;17.20;8.90;;;;;;;;;;103787;1305;25504;-85
2022/10/15 00:52:38;;;;;;;19.10;9.70;;;;;;;;;;103602;1298;25255;-86
2022/10/15 00:55:07;;;;;;;18.30;9.90;;;;;;;;;;103633;1304;22964;-86
2022/10/15 00:57:34;;;;;;;20.50;10.00;;;;;;;;;;103607;1305;24350;-88
2022/10/15 01:00:04;;;;;;;21.90;10.40;;;;;;;;;;103574;1303;22432;-86
2022/10/15 01:02:31;;;;;;;20.50;11.10;;;;;;;;;;103629;1295;174556;-87
2022/10/15 01:04:57;;;;;;;20.00;10.00;;;;;;;;;;103539;1304;22475;-84
2022/10/15 01:07:24;;;;;;;21.50;11.10;;;;;;;;;;103555;1304;22484;-84
2022/10/15 01:09:50;;;;;;;19.90;10.00;;;;;;;;;;103553;1306;24215;-87
2022/10/15 01:12:26;;;;;;;18.40;10.40;;;;;;;;;;103551;1297;22843;-83
2022/10/15 01:15:02;;;;;;;21.70;10.30;;;;;;;;;;103570;1307;24304;-84
2022/10/15 01:17:32;;;;;;;19.40;10.50;;;;;;;;;;103557;1305;23876;-88
2022/10/15 01:20:14;;;;;;;19.30;10.30;;;;;;;;;;103587;1305;22471;-83
2022/10/15 01:22:59;;;;;;;21.90;11.20;;;;;;;;;;103567;1299;25297;-84
2022/10/15 01:25:38;;;;;;;21.40;11.30;;;;;;;;;;103550;1305;22442;-84
2022/10/15 01:28:14;;;;;;;21.50;10.80;;;;;;;;;;103702;1305;22450;-90
2022/10/15 01:30:47;;;;;;;21.60;11.80;;;;;;;;;;103577;1304;24248;-85
2022/10/15 01:33:13;;;;;;;23.80;11.30;;;;;;;;;;103587;1304;22473;-88
2022/10/15 01:35:49;;;;;;;22.40;12.10;;;;;;;;;;103529;1305;22474;-85
2022/10/15 01:38:35;;;;;;;23.20;12.50;;;;;;;;;;103604;1305;24324;-82
2022/10/15 01:41:08;;;;;;;24.40;12.50;;;;;;;;;;103572;1303;22461;-85
2022/10/15 01:43:42;;;;;;;23.90;12.60;;;;;;;;;;103568;1305;22481;-84
2022/10/15 01:46:54;;;;;;;25.20;12.20;;;;;;;;;;103433;1305;23848;-89
2022/10/15 01:49:25;;;;;;;25.40;12.90;;;;;;;;;;103577;1304;22944;-83
2022/10/15 01:51:53;;;;;;;23.90;12.80;;;;;;;;;;103573;1304;22439;-87
2022/10/15 01:54:21;;;;;;;23.00;12.20;;;;;;;;;;103586;1295;22472;-85
2022/10/15 01:56:49;;;;;;;21.10;11.60;;;;;;;;;;103736;1303;22459;-83
2022/10/15 01:59:20;;;;;;;24.70;12.80;;;;;;;;;;103808;1304;22473;-85
2022/10/15 02:01:47;;;;;;;26.40;13.20;;;;;;;;;;103549;1305;22471;-82
2022/10/15 02:04:18;;;;;;;27.80;13.60;;;;;;;;;;103777;1287;23166;-89
2022/10/15 02:06:48;;;;;;;27.10;13.40;;;;;;;;;;103627;1305;24460;-89
2022/10/15 02:09:15;;;;;;;25.30;13.50;;;;;;;;;;103686;1306;24303;-88
2022/10/15 02:11:50;;;;;;;27.00;14.00;;;;;;;;;;103775;1304;23888;-87
2022/10/15 02:14:23;;;;;;;26.30;13.70;;;;;;;;;;103480;1305;22486;-84
2022/10/15 02:16:58;;;;;;;26.40;13.50;;;;;;;;;;103784;1305;22490;-86
2022/10/15 02:19:49;;;;;;;26.20;13.10;;;;;;;;;;103748;1303;25285;-85
2022/10/15 02:22:30;;;;;;;25.10;13.10;;;;;;;;;;103562;1305;22582;-85
2022/10/15 02:25:02;;;;;;;26.50;13.30;;;;;;;;;;103732;1305;24387;-85
2022/10/15 02:27:30;;;;;;;24.10;13.20;;;;;;;;;;103782;1305;22462;-89
2022/10/15 02:29:58;;;;;;;26.40;14.30;;;;;;;;;;103537;1305;22490;-87
2022/10/15 02:32:26;;;;;;;25.50;12.80;;;;;;;;;;103587;1304;22508;-85
2022/10/15 02:34:53;;;;;;;24.70;11.90;;;;;;;;;;103581;1305;23873;-87
2022/10/15 02:37:22;;;;;;;25.40;13.70;;;;;;;;;;103706;1305;23132;-88
2022/10/15 02:39:49;;;;;;;25.20;13.40;;;;;;;;;;103559;1305;22544;-87
2022/10/15 02:42:16;;;;;;;25.30;13.80;;;;;;;;;;103570;1305;24296;-88
2022/10/15 02:44:43;;;;;;;24.70;13.00;;;;;;;;;;103717;1305;23847;-83
2022/10/15 02:47:10;;;;;;;26.80;13.70;;;;;;;;;;103581;1305;22465;-86
2022/10/15 02:49:36;;;;;;;25.10;13.30;;;;;;;;;;103569;1305;24544;-89
2022/10/15 02:52:03;;;;;;;26.10;13.80;;;;;;;;;;103563;1296;22467;-90
2022/10/15 02:54:30;;;;;;;26.70;13.80;;;;;;;;;;103731;1304;22516;-83
2022/10/15 02:57:00;;;;;;;27.50;13.90;;;;;;;;;;103664;1305;22647;-88
2022/10/15 02:59:26;;;;;;;24.90;13.60;;;;;;;;;;103610;1306;22461;-86
2022/10/15 03:01:53;;;;;;;26.70;14.20;;;;;;;;;;103538;1305;22500;-88
2022/10/15 03:04:20;;;;;;;27.40;14.80;;;;;;;;;;103596;1304;25507;-87
2022/10/15 03:06:47;;;;;;;28.00;16.00;;;;;;;;;;103551;1291;22444;-87
2022/10/15 03:09:14;;;;;;;26.60;14.60;;;;;;;;;;103471;1305;22598;-89
2022/10/15 03:11:40;;;;;;;30.00;15.80;;;;;;;;;;103597;1304;23581;-92
2022/10/15 03:14:07;;;;;;;33.40;15.80;;;;;;;;;;103576;1305;22463;-88
2022/10/15 03:16:34;;;;;;;27.20;14.70;;;;;;;;;;103586;1304;22947;-91
2022/10/15 03:19:01;;;;;;;28.90;15.30;;;;;;;;;;103707;1296;22862;-91
2022/10/15 03:21:29;;;;;;;27.20;14.40;;;;;;;;;;103626;1305;22459;-84
2022/10/15 03:24:01;;;;;;;24.90;14.70;;;;;;;;;;103628;1304;22472;-88
2022/10/15 03:26:27;;;;;;;29.00;15.50;;;;;;;;;;103574;1305;24313;-86
2022/10/15 03:28:54;;;;;;;27.80;16.00;;;;;;;;;;103588;1305;22413;-87
2022/10/15 03:31:31;;;;;;;28.40;15.40;;;;;;;;;;103550;1305;25660;-92
2022/10/15 03:33:59;;;;;;;29.40;15.60;;;;;;;;;;103739;1305;22606;-87
2022/10/15 03:36:26;;;;;;;32.20;16.00;;;;;;;;;;103604;1305;23401;-91
2022/10/15 03:38:53;;;;;;;28.00;14.50;;;;;;;;;;103569;1305;24376;-89
2022/10/15 03:41:20;;;;;;;29.00;15.10;;;;;;;;;;103734;1305;24235;-84
2022/10/15 03:43:47;;;;;;;29.20;15.00;;;;;;;;;;103551;1305;24419;-91
2022/10/15 03:46:15;;;;;;;28.90;15.40;;;;;;;;;;103569;1306;22596;-87
2022/10/15 03:48:43;;;;;;;25.90;14.20;;;;;;;;;;103654;1304;22461;-90
2022/10/15 03:51:12;;;;;;;28.30;15.30;;;;;;;;;;103713;1303;22461;-87
2022/10/15 03:53:39;;;;;;;29.90;15.60;;;;;;;;;;103606;1305;24268;-83
2022/10/15 03:56:06;;;;;;;29.00;16.00;;;;;;;;;;103817;1303;25250;-85
2022/10/15 03:58:33;;;;;;;26.60;13.60;;;;;;;;;;103761;1303;22497;-87
2022/10/15 04:01:07;;;;;;;25.50;14.40;;;;;;;;;;103932;1303;22509;-87
2022/10/15 04:03:34;;;;;;;26.70;13.60;;;;;;;;;;103571;1303;25312;-87
2022/10/15 04:06:01;;;;;;;26.90;13.30;;;;;;;;;;103871;1295;24436;-84
2022/10/15 04:08:28;;;;;;;28.70;14.10;;;;;;;;;;103868;1303;22465;-84
2022/10/15 04:10:54;;;;;;;28.70;15.20;;;;;;;;;;103601;1303;25213;-84
2022/10/15 04:13:21;;;;;;;24.50;13.30;;;;;;;;;;103741;1303;22501;-84
2022/10/15 04:15:47;;;;;;;28.00;15.20;;;;;;;;;;103712;1298;22852;-85
2022/10/15 04:18:14;;;;;;;27.90;14.80;;;;;;;;;;103793;1303;22732;-89
2022/10/15 04:20:42;;;;;;;28.30;14.20;;;;;;;;;;103842;1303;24259;-86
2022/10/15 04:23:12;;;;;;;24.30;14.00;;;;;;;;;;103995;1302;25410;-86
2022/10/15 04:25:41;;;;;;;25.20;12.80;;;;;;;;;;103984;1303;24248;-87
2022/10/15 04:28:08;;;;;;;24.00;12.80;;;;;;;;;;103885;1302;22708;-83
2022/10/15 04:30:36;;;;;;;24.90;13.80;;;;;;;;;;103611;1302;25682;-89
2022/10/15 04:33:04;;;;;;;26.50;14.00;;;;;;;;;;103880;1287;24420;-89
2022/10/15 04:35:33;;;;;;;27.60;14.40;;;;;;;;;;103637;1302;22533;-85
2022/10/15 04:38:07;;;;;;;26.20;13.80;;;;;;;;;;103931;1302;25362;-87
2022/10/15 04:41:03;;;;;;;32.50;14.00;;;;;;;;;;103865;1302;24723;-87
2022/10/15 04:43:44;;;;;;;26.30;14.10;;;;;;;;;;104020;1302;22577;-87
2022/10/15 04:46:11;;;;;;;34.40;14.40;;;;;;;;;;103873;1295;24481;-86
2022/10/15 04:48:38;;;;;;;26.60;13.70;;;;;;;;;;103961;1295;22469;-87
2022/10/15 04:51:10;;;;;;;27.60;13.40;;;;;;;;;;103856;1294;22695;-86
2022/10/15 04:53:55;;;;;;;25.60;12.80;;;;;;;;;;103862;1295;22587;-86
2022/10/15 04:56:22;;;;;;;25.40;13.30;;;;;;;;;;103839;1302;22467;-90
2022/10/15 04:58:49;;;;;;;26.40;13.10;;;;;;;;;;103834;1302;24293;-83
2022/10/15 05:01:17;;;;;;;24.40;13.20;;;;;;;;;;103862;1302;25202;-85
2022/10/15 05:03:55;;;;;;;25.70;12.90;;;;;;;;;;103862;1302;22502;-89
2022/10/15 05:06:21;;;;;;;25.20;13.20;;;;;;;;;;103873;1302;22504;-86
2022/10/15 05:08:48;;;;;;;24.30;13.10;;;;;;;;;;103840;1302;24237;-86
2022/10/15 05:11:21;;;;;;;27.00;13.20;;;;;;;;;;103855;1303;21687;-83
2022/10/15 05:13:48;;;;;;;23.70;13.00;;;;;;;;;;103937;1303;25203;-85
2022/10/15 05:16:16;;;;;;;25.60;13.20;;;;;;;;;;103616;1303;22482;-87
2022/10/15 05:18:44;;;;;;;25.00;12.90;;;;;;;;;;103562;1302;25262;-86
2022/10/15 05:21:11;;;;;;;25.00;13.40;;;;;;;;;;103851;1303;25317;-85
2022/10/15 05:23:38;;;;;;;26.10;13.90;;;;;;;;;;103994;1302;22473;-84
2022/10/15 05:26:19;;;;;;;24.10;12.50;;;;;;;;;;103614;1303;22494;-85
2022/10/15 05:28:46;;;;;;;29.80;13.90;;;;;;;;;;103953;1303;22448;-88
2022/10/15 05:31:20;;;;;;;29.80;15.40;;;;;;;;;;103618;1305;24329;-83
2022/10/15 05:33:47;;;;;;;37.70;16.30;;;;;;;;;;103997;1301;23059;-87
2022/10/15 05:36:16;;;;;;;32.10;14.70;;;;;;;;;;103650;1303;25249;-87
2022/10/15 05:38:43;;;;;;;27.40;13.30;;;;;;;;;;103917;1300;22501;-87
2022/10/15 05:41:09;;;;;;;27.90;13.50;;;;;;;;;;103620;1302;22473;-84
2022/10/15 05:43:37;;;;;;;29.60;13.20;;;;;;;;;;103976;1295;24385;-88
2022/10/15 05:46:05;;;;;;;25.30;13.70;;;;;;;;;;104024;1302;22467;-86
2022/10/15 05:48:32;;;;;;;30.00;15.10;;;;;;;;;;103661;1302;25494;-88
2022/10/15 05:51:11;;;;;;;28.10;13.90;;;;;;;;;;103590;1303;22578;-85
2022/10/15 05:53:38;;;;;;;30.80;15.10;;;;;;;;;;103582;1303;24296;-87
2022/10/15 05:56:07;;;;;;;29.50;14.70;;;;;;;;;;103979;1302;22605;-83
2022/10/15 05:58:35;;;;;;;28.20;15.40;;;;;;;;;;103892;1302;22463;-85
2022/10/15 06:01:03;;;;;;;30.40;14.80;;;;;;;;;;103836;1302;22424;-86
2022/10/15 06:03:30;;;;;;;28.80;14.30;;;;;;;;;;104039;1302;24267;-83
2022/10/15 06:05:57;;;;;;;25.40;12.60;;;;;;;;;;103927;1303;24514;-88
2022/10/15 06:08:23;;;;;;;26.10;13.30;;;;;;;;;;103915;1295;22462;-89
2022/10/15 06:10:50;;;;;;;25.60;14.00;;;;;;;;;;103938;1302;22472;-83
2022/10/15 06:13:16;;;;;;;29.40;13.90;;;;;;;;;;103948;1301;23069;-86
2022/10/15 06:15:44;;;;;;;27.40;14.60;;;;;;;;;;103935;1302;22462;-89
2022/10/15 06:18:14;;;;;;;29.50;14.80;;;;;;;;;;103966;1303;22477;-85
2022/10/15 06:20:43;;;;;;;25.40;13.80;;;;;;;;;;103882;1288;22468;-88
2022/10/15 06:23:10;;;;;;;26.60;14.00;;;;;;;;;;103871;1302;25325;-83
2022/10/15 06:25:37;;;;;;;27.60;14.30;;;;;;;;;;103862;1302;24336;-83
2022/10/15 06:28:05;;;;;;;25.50;13.20;;;;;;;;;;103817;1302;26659;-87
2022/10/15 06:30:39;;;;;;;27.90;13.90;;;;;;;;;;103998;1295;22639;-84
2022/10/15 06:33:06;;;;;;;30.00;14.40;;;;;;;;;;103969;1299;24348;-90
2022/10/15 06:35:34;;;;;;;29.10;14.50;;;;;;;;;;103894;1295;24311;-86
2022/10/15 06:38:02;;;;;;;28.70;14.70;;;;;;;;;;103928;1301;25440;-85
2022/10/15 06:40:29;;;;;;;28.00;15.50;;;;;;;;;;103907;1302;22470;-89
2022/10/15 06:43:03;;;;;;;29.70;15.40;;;;;;;;;;103966;1303;25445;-88
2022/10/15 06:45:30;;;;;;;29.20;16.20;;;;;;;;;;103846;1302;22615;-90
2022/10/15 06:47:57;;;;;;;31.30;16.00;;;;;;;;;;103824;1303;22720;-88
2022/10/15 06:50:23;;;;;;;30.10;16.90;;;;;;;;;;103843;1294;22696;-88
2022/10/15 06:52:50;;;;;;;30.90;16.80;;;;;;;;;;103988;1301;22459;-85
2022/10/15 06:55:17;;;;;;;30.70;16.80;;;;;;;;;;103979;1302;24234;-89
2022/10/15 06:57:43;;;;;;;31.10;17.30;;;;;;;;;;103810;1302;22472;-87
2022/10/15 07:00:14;;;;;;;32.00;17.40;;;;;;;;;;103923;1302;24235;-87
2022/10/15 07:02:41;;;;;;;34.70;18.10;;;;;;;;;;103874;1278;22474;-87
2022/10/15 07:05:08;;;;;;;37.00;19.60;;;;;;;;;;103989;1288;22533;-94
2022/10/15 07:07:35;;;;;;;38.30;18.40;;;;;;;;;;103749;1303;25219;-85
2022/10/15 07:10:03;;;;;;;33.50;18.10;;;;;;;;;;103837;1277;22520;-91
2022/10/15 07:12:31;;;;;;;32.60;17.60;;;;;;;;;;103837;1303;22699;-89
2022/10/15 07:14:58;;;;;;;34.20;17.80;;;;;;;;;;103967;1302;24329;-87
2022/10/15 07:17:26;;;;;;;34.80;18.80;;;;;;;;;;103951;1300;22832;-88
2022/10/15 07:19:53;;;;;;;38.00;19.00;;;;;;;;;;103885;1303;25497;-87
2022/10/15 07:22:20;;;;;;;34.60;18.00;;;;;;;;;;103601;1303;22476;-87
2022/10/15 07:24:46;;;;;;;32.90;17.90;;;;;;;;;;103964;1302;26685;-87
2022/10/15 07:27:13;;;;;;;35.70;19.00;;;;;;;;;;103952;1302;22428;-87
2022/10/15 07:29:40;;;;;;;33.80;19.10;;;;;;;;;;104018;1302;24412;-87
2022/10/15 07:32:06;;;;;;;35.10;18.40;;;;;;;;;;103946;1302;22462;-88
2022/10/15 07:34:33;;;;;;;34.30;17.50;;;;;;;;;;103913;1303;24532;-89
2022/10/15 07:36:59;;;;;;;30.10;16.90;;;;;;;;;;103951;1303;24235;-92
2022/10/15 07:39:26;;;;;;;31.50;17.70;;;;;;;;;;103793;1302;23157;-88
2022/10/15 07:41:53;;;;;;;31.50;17.30;;;;;;;;;;103857;1301;25451;-86
2022/10/15 07:44:21;;;;;;;32.40;17.80;;;;;;;;;;103865;1302;22472;-85
2022/10/15 07:46:48;;;;;;;30.70;17.30;;;;;;;;;;103635;1302;23874;-88
2022/10/15 07:49:16;;;;;;;35.70;18.20;;;;;;;;;;103729;1293;22865;-91
2022/10/15 07:51:43;;;;;;;32.00;17.90;;;;;;;;;;103940;1300;22541;-86
2022/10/15 07:54:10;;;;;;;29.90;16.30;;;;;;;;;;103795;1303;24235;-88
2022/10/15 07:56:37;;;;;;;27.10;15.30;;;;;;;;;;103694;1301;22480;-89
2022/10/15 07:59:04;;;;;;;26.20;15.10;;;;;;;;;;103742;1301;25319;-89
2022/10/15 08:01:31;;;;;;;30.60;15.00;;;;;;;;;;103636;1302;25263;-85
2022/10/15 08:03:58;;;;;;;27.80;15.20;;;;;;;;;;103818;1302;25677;-90
2022/10/15 08:06:25;;;;;;;27.10;15.00;;;;;;;;;;103860;1302;24274;-88
2022/10/15 08:08:52;;;;;;;25.70;14.70;;;;;;;;;;103880;1307;24259;-89
2022/10/15 08:11:19;;;;;;;28.10;15.10;;;;;;;;;;103670;1302;24282;-88
2022/10/15 08:13:47;;;;;;;27.90;15.70;;;;;;;;;;103686;1302;22477;-90
2022/10/15 08:16:15;;;;;;;25.10;14.40;;;;;;;;;;103632;1303;22457;-91
2022/10/15 08:18:43;;;;;;;25.10;14.30;;;;;;;;;;103607;1304;24409;-89
2022/10/15 08:21:11;;;;;;;26.40;14.30;;;;;;;;;;103752;1302;24250;-87
2022/10/15 08:23:55;;;;;;;25.80;14.10;;;;;;;;;;100762;1338;545010;-87
2022/10/15 08:26:33;;;;;;;26.80;13.80;;;;;;;;;;102889;1316;22480;-87
2022/10/15 08:29:00;;;;;;;23.80;13.10;;;;;;;;;;102742;1316;24619;-88
2022/10/15 08:31:27;;;;;;;21.80;11.70;;;;;;;;;;102979;1301;22471;-87
2022/10/15 08:33:55;;;;;;;20.50;12.00;;;;;;;;;;102729;1294;22493;-92
2022/10/15 08:36:23;;;;;;;19.50;11.00;;;;;;;;;;102601;1298;137308;-87
2022/10/15 08:38:50;;;;;;;21.90;11.10;;;;;;;;;;102988;1305;22524;-87
2022/10/15 08:41:23;;;;;;;19.90;10.40;;;;;;;;;;102997;1292;24327;-86
2022/10/15 08:43:50;;;;;;;20.20;10.40;;;;;;;;;;103187;1289;22468;-87
2022/10/15 08:46:28;;;;;;;18.80;10.50;;;;;;;;;;103179;1298;22470;-85
2022/10/15 08:48:57;;;;;;;22.80;11.20;;;;;;;;;;103147;1295;22428;-91
2022/10/15 08:51:25;;;;;;;26.80;13.00;;;;;;;;;;103168;1294;24740;-85
2022/10/15 08:53:56;;;;;;;25.70;12.90;;;;;;;;;;103184;1295;22500;-87
2022/10/15 08:56:26;;;;;;;23.40;12.80;;;;;;;;;;103151;1311;25479;-88
2022/10/15 08:59:01;;;;;;;26.50;14.20;;;;;;;;;;103061;1313;22484;-88
2022/10/15 09:01:36;;;;;;;25.40;13.60;;;;;;;;;;103181;1313;26609;-85
2022/10/15 09:04:17;;;;;;;22.60;12.90;;;;;;;;;;103128;1313;24256;-86
2022/10/15 09:06:43;;;;;;;22.50;11.70;;;;;;;;;;103029;1313;22471;-90
2022/10/15 09:09:17;;;;;;;18.60;10.40;;;;;;;;;;103240;1289;22702;-87
2022/10/15 09:11:43;;;;;;;18.60;10.20;;;;;;;;;;103243;1289;22533;-87
2022/10/15 09:14:14;;;;;;;18.80;8.80;;;;;;;;;;103058;1313;24280;-89
2022/10/15 09:16:43;;;;;;;16.60;8.00;;;;;;;;;;103489;1284;22712;-89
2022/10/15 09:19:21;;;;;;;14.30;7.50;;;;;;;;;;103792;1282;23845;-88
2022/10/15 09:21:51;;;;;;;13.00;6.30;;;;;;;;;;103567;1282;22522;-87
2022/10/15 09:24:25;;;;;;;12.70;6.50;;;;;;;;;;103624;1289;22597;-87
2022/10/15 09:26:59;;;;;;;13.10;6.80;;;;;;;;;;103681;1292;22521;-86
2022/10/15 09:29:26;;;;;;;11.00;5.70;;;;;;;;;;103655;1275;24237;-88
2022/10/15 09:31:59;;;;;;;10.70;5.00;;;;;;;;;;103691;1291;22484;-90
2022/10/15 09:34:36;;;;;;;8.90;4.20;;;;;;;;;;103674;1288;22463;-87
2022/10/15 09:37:06;;;;;;;9.80;3.90;;;;;;;;;;103536;1290;24243;-88
2022/10/15 09:39:59;;;;;;;8.70;3.60;;;;;;;;;;103600;1275;22448;-91
2022/10/15 09:42:44;;;;;;;11.80;4.00;;;;;;;;;;103507;1289;25330;-87
2022/10/15 09:45:14;;;;;;;12.00;4.30;;;;;;;;;;103675;1303;22522;-87
2022/10/15 09:47:42;;;;;;;10.90;3.70;;;;;;;;;;103930;1302;22561;-85
2022/10/15 09:50:10;;;;;;;8.10;2.70;;;;;;;;;;103824;1281;25595;-87
2022/10/15 09:52:46;;;;;;;9.60;2.80;;;;;;;;;;103713;1286;22458;-85
2022/10/15 09:55:32;;;;;;;7.70;2.10;;;;;;;;;;103737;1303;22461;-86
2022/10/15 09:58:13;;;;;;;8.10;2.20;;;;;;;;;;103701;1303;22462;-89
2022/10/15 10:00:46;;;;;;;6.70;2.10;;;;;;;;;;103639;1282;25258;-90
2022/10/15 10:03:14;;;;;;;8.10;2.50;;;;;;;;;;103646;1287;24435;-85
2022/10/15 10:05:42;;;;;;;6.90;2.10;;;;;;;;;;103828;1289;22669;-90
2022/10/15 10:08:15;;;;;;;7.50;1.90;;;;;;;;;;103877;1304;24205;-89
2022/10/15 10:10:41;;;;;;;6.40;1.80;;;;;;;;;;103823;1303;24862;-88
2022/10/15 10:13:20;;;;;;;5.30;1.90;;;;;;;;;;103744;1296;25629;-89
2022/10/15 10:15:52;;;;;;;6.30;2.30;;;;;;;;;;103797;1303;22552;-90
2022/10/15 10:18:21;;;;;;;6.40;2.50;;;;;;;;;;103742;1304;24288;-87
2022/10/15 10:20:58;;;;;;;7.80;2.40;;;;;;;;;;103903;1295;22473;-86
2022/10/15 10:23:30;;;;;;;8.40;2.60;;;;;;;;;;103821;1304;26001;-88
2022/10/15 10:25:58;;;;;;;6.90;2.90;;;;;;;;;;103823;1303;25384;-87
2022/10/15 10:28:50;;;;;;;7.40;2.90;;;;;;;;;;103922;1304;22478;-86
2022/10/15 10:31:18;;;;;;;7.90;2.90;;;;;;;;;;104123;1302;21917;-87
2022/10/15 10:33:47;;;;;;;7.30;2.70;;;;;;;;;;103822;1302;22477;-88
2022/10/15 10:36:43;;;;;;;7.30;3.30;;;;;;;;;;103810;1303;24270;-86
2022/10/15 10:39:14;;;;;;;9.10;3.60;;;;;;;;;;103819;1303;23760;-90
2022/10/15 10:41:59;;;;;;;8.50;3.60;;;;;;;;;;100479;1344;544693;-85
2022/10/15 10:44:26;;;;;;;8.50;3.80;;;;;;;;;;102635;1317;23156;-87
2022/10/15 10:47:10;;;;;;;8.60;3.40;;;;;;;;;;102580;1318;25576;-87
2022/10/15 10:49:39;;;;;;;8.40;3.70;;;;;;;;;;103720;1285;23222;-84
2022/10/15 10:52:27;;;;;;;8.60;3.40;;;;;;;;;;103557;1306;23852;-89
2022/10/15 10:54:58;;;;;;;7.70;3.50;;;;;;;;;;103831;1282;121375;-90
2022/10/15 10:57:28;;;;;;;7.90;3.70;;;;;;;;;;103764;1282;25820;-88
2022/10/15 10:59:55;;;;;;;8.10;3.80;;;;;;;;;;103601;1304;22553;-90
2022/10/15 11:02:23;;;;;;;8.60;3.80;;;;;;;;;;103675;1304;23874;-88
2022/10/15 11:04:49;;;;;;;9.10;3.60;;;;;;;;;;103668;1281;23432;-88
2022/10/15 11:07:16;;;;;;;10.10;5.00;;;;;;;;;;103578;1298;22487;-91
2022/10/15 11:10:02;;;;;;;11.00;6.20;;;;;;;;;;103732;1304;22474;-88
2022/10/15 11:12:29;;;;;;;14.00;7.80;;;;;;;;;;103579;1306;22455;-88
2022/10/15 11:15:07;;;;;;;14.00;9.00;;;;;;;;;;103653;1284;23116;-89
2022/10/15 11:17:53;;;;;;;16.70;8.60;;;;;;;;;;103642;1306;24345;-87
2022/10/15 11:20:21;;;;;;;17.70;9.80;;;;;;;;;;103473;1306;22471;-85
2022/10/15 11:23:06;;;;;;;17.50;10.30;;;;;;;;;;103579;1306;22471;-92
2022/10/15 11:25:53;;;;;;;17.80;10.80;;;;;;;;;;103553;1306;25213;-87
2022/10/15 11:28:39;;;;;;;17.00;10.70;;;;;;;;;;103737;1304;22541;-88
2022/10/15 11:31:18;;;;;;;17.80;10.40;;;;;;;;;;103567;1306;22889;-89
2022/10/15 11:33:55;;;;;;;18.00;10.90;;;;;;;;;;103500;1306;22482;-86
2022/10/15 11:36:22;;;;;;;21.80;11.90;;;;;;;;;;103516;1306;22479;-88
2022/10/15 11:38:55;;;;;;;22.20;12.90;;;;;;;;;;103558;1306;22503;-93
2022/10/15 11:41:28;;;;;;;21.60;12.60;;;;;;;;;;103531;1306;22470;-91
2022/10/15 11:44:05;;;;;;;19.50;13.00;;;;;;;;;;103583;1306;24360;-86
2022/10/15 11:46:38;;;;;;;20.50;12.00;;;;;;;;;;103857;1298;25353;-86
2022/10/15 11:49:22;;;;;;;22.50;13.20;;;;;;;;;;103716;1289;22672;-91
2022/10/15 11:51:55;;;;;;;21.50;13.50;;;;;;;;;;103499;1292;25261;-87
2022/10/15 11:54:23;;;;;;;22.70;14.00;;;;;;;;;;103635;1306;22459;-84
2022/10/15 11:56:54;;;;;;;16.90;9.90;;;;;;;;;;103615;1306;22481;-85
2022/10/15 11:59:45;;;;;;;16.50;8.80;;;;;;;;;;103746;1298;25322;-86
2022/10/15 12:02:23;;;;;;;17.30;9.10;;;;;;;;;;103609;1306;25321;-89
2022/10/15 12:05:13;;;;;;;17.10;9.90;;;;;;;;;;103698;1306;22432;-87
2022/10/15 12:07:41;;;;;;;16.80;9.80;;;;;;;;;;103425;1306;23615;-89
2022/10/15 12:10:12;;;;;;;16.50;10.00;;;;;;;;;;103698;1297;22471;-89
2022/10/15 12:12:42;;;;;;;18.70;9.80;;;;;;;;;;103724;1297;22611;-89
2022/10/15 12:15:10;;;;;;;17.40;10.70;;;;;;;;;;103648;1306;25205;-84
2022/10/15 12:17:46;;;;;;;18.70;11.30;;;;;;;;;;103590;1282;25479;-90
2022/10/15 12:20:19;;;;;;;18.50;10.80;;;;;;;;;;103645;1292;22581;-86
2022/10/15 12:22:45;;;;;;;16.10;9.70;;;;;;;;;;103539;1305;23900;-85
2022/10/15 12:25:31;;;;;;;17.00;10.30;;;;;;;;;;103704;1298;22479;-87
2022/10/15 12:27:58;;;;;;;19.30;11.60;;;;;;;;;;103774;1306;22071;-89
2022/10/15 12:30:26;;;;;;;18.30;11.10;;;;;;;;;;103527;1294;23426;-85
2022/10/15 12:32:53;;;;;;;20.90;12.70;;;;;;;;;;103723;1305;22494;-84
2022/10/15 12:35:22;;;;;;;18.30;11.70;;;;;;;;;;103472;1292;22855;-92
2022/10/15 12:37:49;;;;;;;18.60;11.50;;;;;;;;;;103455;1291;22495;-90
2022/10/15 12:40:22;;;;;;;19.60;12.90;;;;;;;;;;103490;1306;22465;-86
2022/10/15 12:42:49;;;;;;;19.90;12.30;;;;;;;;;;103551;1305;25424;-91
2022/10/15 12:45:21;;;;;;;20.70;12.20;;;;;;;;;;103557;1306;25341;-90
2022/10/15 12:47:49;;;;;;;20.30;11.00;;;;;;;;;;103499;1306;25196;-88
2022/10/15 12:50:17;;;;;;;19.80;12.00;;;;;;;;;;103545;1306;25392;-84
2022/10/15 12:52:53;;;;;;;19.70;11.40;;;;;;;;;;103558;1306;23890;-86
2022/10/15 12:55:26;;;;;;;19.10;11.50;;;;;;;;;;103565;1305;24630;-84
2022/10/15 12:57:52;;;;;;;22.30;12.80;;;;;;;;;;103596;1297;22487;-90
2022/10/15 13:00:33;;;;;;;19.80;13.00;;;;;;;;;;103598;1304;22465;-92
2022/10/15 13:03:13;;;;;;;21.30;12.60;;;;;;;;;;103551;1289;22717;-91
2022/10/15 13:05:40;;;;;;;22.20;13.40;;;;;;;;;;103663;1284;22479;-85
2022/10/15 13:08:15;;;;;;;20.10;12.70;;;;;;;;;;103533;1305;22475;-88
2022/10/15 13:10:50;;;;;;;23.10;13.90;;;;;;;;;;103470;1306;25381;-90
2022/10/15 13:13:20;;;;;;;22.10;13.40;;;;;;;;;;103546;1306;22467;-88
2022/10/15 13:15:50;;;;;;;21.20;13.10;;;;;;;;;;103494;1306;22477;-87
2022/10/15 13:18:20;;;;;;;19.90;12.30;;;;;;;;;;103526;1306;22528;-84
2022/10/15 13:20:47;;;;;;;19.00;10.60;;;;;;;;;;103529;1306;24744;-86
2022/10/15 13:23:20;;;;;;;21.10;12.80;;;;;;;;;;103553;1306;25578;-85
2022/10/15 13:25:50;;;;;;;21.10;12.80;;;;;;;;;;103581;1301;25269;-84
2022/10/15 13:28:28;;;;;;;21.00;12.50;;;;;;;;;;103580;1306;25563;-88
2022/10/15 13:30:55;;;;;;;23.00;14.90;;;;;;;;;;103518;1306;22493;-85
2022/10/15 13:33:22;;;;;;;18.30;11.80;;;;;;;;;;103578;1305;22624;-85
2022/10/15 13:35:49;;;;;;;20.30;13.60;;;;;;;;;;103669;1282;24241;-85
2022/10/15 13:38:21;;;;;;;20.60;12.10;;;;;;;;;;103726;1282;22495;-85
2022/10/15 13:40:48;;;;;;;21.40;13.20;;;;;;;;;;103667;1287;22495;-89
2022/10/15 13:43:15;;;;;;;20.60;12.40;;;;;;;;;;103747;1284;22475;-85
2022/10/15 13:45:55;;;;;;;20.00;12.00;;;;;;;;;;103736;1306;22466;-84
2022/10/15 13:48:24;;;;;;;19.40;11.80;;;;;;;;;;103702;1278;22523;-84
2022/10/15 13:50:52;;;;;;;23.20;13.70;;;;;;;;;;103740;1289;22512;-91
2022/10/15 13:53:33;;;;;;;20.30;13.00;;;;;;;;;;103695;1289;23896;-86
2022/10/15 13:56:02;;;;;;;20.50;12.90;;;;;;;;;;103685;1289;25817;-84
2022/10/15 13:58:32;;;;;;;22.40;13.40;;;;;;;;;;103766;1291;22484;-85
2022/10/15 14:01:00;;;;;;;22.40;13.20;;;;;;;;;;103713;1286;22476;-86
2022/10/15 14:03:29;;;;;;;22.30;13.50;;;;;;;;;;103697;1282;22839;-86
2022/10/15 14:05:57;;;;;;;23.20;13.90;;;;;;;;;;103707;1291;23194;-87
2022/10/15 14:08:28;;;;;;;24.20;14.20;;;;;;;;;;103638;1291;22473;-86
2022/10/15 14:10:57;;;;;;;27.30;14.70;;;;;;;;;;103724;1281;25285;-84
2022/10/15 14:13:25;;;;;;;25.00;13.40;;;;;;;;;;103671;1287;22562;-83
2022/10/15 14:15:55;;;;;;;26.00;13.20;;;;;;;;;;103670;1289;23840;-86
2022/10/15 14:18:28;;;;;;;23.20;11.60;;;;;;;;;;103517;1305;22461;-89
2022/10/15 14:20:54;;;;;;;21.30;12.20;;;;;;;;;;103569;1305;22518;-83
2022/10/15 14:23:23;;;;;;;17.00;10.60;;;;;;;;;;103541;1299;22469;-90
2022/10/15 14:25:57;;;;;;;17.00;10.20;;;;;;;;;;103556;1305;22476;-90
2022/10/15 14:28:25;;;;;;;13.80;8.30;;;;;;;;;;103486;1305;24694;-88